Time;durP1;ratioP1;P1;durP2;ratioP2;P2;SDS_P1;SDS_P2;PMS_P1;PMS_P2;Temp;Humidity;BMP_temperature;BMP_pressure;BME280_temperature;BME280_humidity;BME280_pressure;Samples;Min_cycle;Max_cycle;Signal;HPM_P1;HPM_P2
2022/11/20 00:00:17;;;;;;;30.02;18.75;;;-1.40;99.90;;;;;;4991706;28;20045;-38
2022/11/20 00:02:44;;;;;;;27.52;17.30;;;-1.40;99.90;;;;;;4992473;28;20486;-40
2022/11/20 00:05:11;;;;;;;35.30;21.27;;;-1.40;99.90;;;;;;4991223;28;20144;-41
2022/11/20 00:07:38;;;;;;;34.65;21.75;;;-1.30;99.90;;;;;;5008005;28;20895;-41
2022/11/20 00:10:05;;;;;;;34.60;21.95;;;-1.30;99.90;;;;;;5011522;28;20073;-40
2022/11/20 00:12:34;;;;;;;36.40;24.35;;;-1.30;99.90;;;;;;5002231;28;20099;-41
2022/11/20 00:15:00;;;;;;;32.55;20.80;;;-1.20;99.90;;;;;;5015548;28;20454;-40
2022/11/20 00:17:27;;;;;;;36.63;22.13;;;-1.20;99.90;;;;;;5008464;28;20058;-39
2022/11/20 00:19:54;;;;;;;31.80;19.95;;;-1.20;99.90;;;;;;5004360;28;20411;-41
2022/11/20 00:22:21;;;;;;;32.60;19.98;;;-1.10;99.90;;;;;;5012607;28;20089;-40
2022/11/20 00:24:47;;;;;;;28.92;17.10;;;-1.10;99.90;;;;;;5012747;28;20096;-41
2022/11/20 00:27:14;;;;;;;32.78;20.25;;;-1.00;99.90;;;;;;5028360;28;20076;-42
2022/11/20 00:29:42;;;;;;;36.40;21.85;;;-1.00;99.90;;;;;;5028478;28;20080;-40
2022/11/20 00:32:09;;;;;;;33.75;20.30;;;-1.00;99.90;;;;;;5027866;28;20136;-40
2022/11/20 00:34:36;;;;;;;30.85;18.55;;;-1.00;99.90;;;;;;5000180;28;20535;-41
2022/11/20 00:37:03;;;;;;;27.80;17.30;;;-0.90;99.90;;;;;;4997547;28;20101;-41
2022/11/20 00:39:29;;;;;;;28.30;15.23;;;-0.90;99.90;;;;;;5013845;28;20092;-41
2022/11/20 00:41:56;;;;;;;23.52;14.77;;;-0.90;99.90;;;;;;5016465;28;20081;-43
2022/11/20 00:44:23;;;;;;;29.55;15.77;;;-0.90;99.90;;;;;;5013070;28;20045;-41
2022/11/20 00:46:51;;;;;;;25.63;15.15;;;-0.80;99.90;;;;;;5020269;28;20134;-41
2022/11/20 00:49:18;;;;;;;25.92;14.90;;;-0.80;99.90;;;;;;4996525;28;20093;-40
2022/11/20 00:51:44;;;;;;;26.85;15.20;;;-0.80;99.90;;;;;;5022460;28;20438;-41
2022/11/20 00:54:11;;;;;;;26.48;15.65;;;-0.80;99.90;;;;;;5013041;28;20046;-41
2022/11/20 00:56:38;;;;;;;25.17;15.95;;;-0.70;99.90;;;;;;5015638;28;20105;-39
2022/11/20 00:59:05;;;;;;;24.15;15.25;;;-0.70;99.90;;;;;;5016115;28;20124;-40
2022/11/20 01:01:32;;;;;;;24.77;15.32;;;-0.70;99.90;;;;;;5004457;28;20054;-40
2022/11/20 01:04:00;;;;;;;24.58;15.77;;;-0.70;99.90;;;;;;4977965;28;20050;-40
2022/11/20 01:06:28;;;;;;;24.45;14.65;;;-0.70;99.90;;;;;;4984407;28;20054;-40
2022/11/20 01:08:56;;;;;;;25.73;14.18;;;-0.70;99.90;;;;;;4989791;28;20085;-41
2022/11/20 01:11:27;;;;;;;25.25;15.27;;;-0.70;99.90;;;;;;4983320;28;20043;-40
2022/11/20 01:13:54;;;;;;;24.70;15.68;;;-0.60;99.90;;;;;;4974538;28;20092;-41
2022/11/20 01:16:22;;;;;;;22.48;15.00;;;-0.60;99.90;;;;;;4991196;28;20077;-41
2022/11/20 01:18:50;;;;;;;24.30;15.15;;;-0.60;99.90;;;;;;4996014;28;20138;-40
2022/11/20 01:21:19;;;;;;;24.85;16.05;;;-0.60;99.90;;;;;;4992281;28;20101;-40
2022/11/20 01:23:46;;;;;;;30.65;18.45;;;-0.50;99.90;;;;;;4956649;28;20514;-40
2022/11/20 01:26:14;;;;;;;25.73;15.63;;;-0.50;99.90;;;;;;4964633;28;20098;-41
2022/11/20 01:28:41;;;;;;;22.42;14.35;;;-0.60;99.90;;;;;;4982134;28;20050;-39
2022/11/20 01:31:15;;;;;;;27.88;16.17;;;-0.50;99.90;;;;;;4985770;28;20133;-41
2022/11/20 01:33:42;;;;;;;23.83;15.05;;;-0.50;99.90;;;;;;4968115;28;20110;-41
2022/11/20 01:36:09;;;;;;;23.08;15.38;;;-0.50;99.90;;;;;;4979539;28;20042;-40
2022/11/20 01:38:38;;;;;;;20.60;13.93;;;-0.50;99.90;;;;;;4990977;28;20459;-42
2022/11/20 01:41:05;;;;;;;23.08;15.30;;;-0.50;99.90;;;;;;4991531;28;20171;-39
2022/11/20 01:43:31;;;;;;;23.80;14.90;;;-0.50;99.90;;;;;;4991563;28;20093;-41
2022/11/20 01:46:05;;;;;;;21.52;15.00;;;-0.40;99.90;;;;;;4988260;28;20081;-41
2022/11/20 01:48:37;;;;;;;23.17;14.48;;;-0.40;99.90;;;;;;4983699;28;20133;-39
2022/11/20 01:51:05;;;;;;;22.48;15.00;;;-0.40;99.90;;;;;;5000345;28;21419;-40
2022/11/20 01:53:33;;;;;;;24.63;16.17;;;-0.40;99.90;;;;;;4987389;28;20387;-41
2022/11/20 01:56:01;;;;;;;22.23;14.20;;;-0.30;99.90;;;;;;4962455;28;20086;-40
2022/11/20 01:58:29;;;;;;;24.95;15.52;;;-0.30;99.90;;;;;;4972213;28;20093;-40
2022/11/20 02:00:56;;;;;;;21.30;14.70;;;-0.30;99.90;;;;;;4991431;28;20082;-41
2022/11/20 02:03:23;;;;;;;22.35;13.70;;;-0.30;99.90;;;;;;4997138;28;20125;-40
2022/11/20 02:05:52;;;;;;;27.05;16.27;;;-0.20;99.90;;;;;;4990345;28;20077;-41
2022/11/20 02:08:19;;;;;;;23.08;15.40;;;-0.20;99.90;;;;;;4989983;28;20097;-39
2022/11/20 02:10:45;;;;;;;27.30;15.93;;;-0.20;99.90;;;;;;4987272;28;20442;-41
2022/11/20 02:15:58;;;;;;;21.88;14.52;;;-0.20;99.90;;;;;;4974436;28;20054;-38
2022/11/20 02:18:24;;;;;;;24.80;15.30;;;-0.20;99.90;;;;;;4992070;28;20065;-40
2022/11/20 02:20:54;;;;;;;20.75;13.43;;;-0.20;99.90;;;;;;4978263;28;20105;-42
2022/11/20 02:23:22;;;;;;;24.45;14.68;;;-0.10;99.90;;;;;;4994849;28;20089;-40
2022/11/20 02:25:50;;;;;;;20.35;13.45;;;-0.10;99.90;;;;;;4990958;28;20113;-40
2022/11/20 02:28:18;;;;;;;27.27;15.43;;;-0.10;99.90;;;;;;4993316;28;20118;-41
2022/11/20 02:30:44;;;;;;;24.38;15.52;;;-0.10;99.90;;;;;;4995331;28;20133;-41
2022/11/20 02:33:11;;;;;;;25.55;15.25;;;-0.10;99.90;;;;;;4985744;28;20128;-42
2022/11/20 02:35:43;;;;;;;24.92;15.07;;;-0.10;99.90;;;;;;4978166;28;20116;-36
2022/11/20 02:38:10;;;;;;;23.92;14.90;;;-0.10;99.90;;;;;;4992171;28;20051;-41
2022/11/20 02:40:37;;;;;;;22.77;14.38;;;0.00;99.90;;;;;;4975124;28;20344;-41
2022/11/20 02:43:05;;;;;;;24.50;14.95;;;0.00;99.90;;;;;;4988914;28;20455;-41
2022/11/20 02:45:32;;;;;;;24.23;15.55;;;0.00;99.90;;;;;;4977395;28;20085;-41
2022/11/20 02:47:59;;;;;;;23.00;15.27;;;0.00;99.90;;;;;;4992427;28;20209;-41
2022/11/20 02:50:26;;;;;;;25.65;15.80;;;0.00;99.90;;;;;;4978965;28;20089;-40
2022/11/20 02:52:52;;;;;;;23.70;14.52;;;0.00;99.90;;;;;;4995562;28;20081;-41
2022/11/20 02:55:19;;;;;;;23.90;15.60;;;0.00;99.90;;;;;;4985774;28;20503;-39
2022/11/20 02:57:46;;;;;;;24.48;15.18;;;0.00;99.90;;;;;;4992032;28;20047;-41
2022/11/20 03:00:15;;;;;;;24.40;15.23;;;0.00;99.90;;;;;;4993877;28;20042;-41
2022/11/20 03:02:42;;;;;;;22.70;15.13;;;0.00;99.90;;;;;;5012466;28;20589;-42
2022/11/20 03:05:09;;;;;;;24.05;14.98;;;0.00;99.90;;;;;;5018817;28;20096;-41
2022/11/20 03:07:36;;;;;;;22.40;14.77;;;0.00;99.90;;;;;;4984879;28;20046;-39
2022/11/20 03:10:06;;;;;;;22.50;14.75;;;0.10;99.90;;;;;;5003537;28;20046;-41
2022/11/20 03:12:33;;;;;;;21.17;15.27;;;0.10;99.90;;;;;;5005568;28;20038;-41
2022/11/20 03:15:00;;;;;;;21.17;14.23;;;0.10;99.90;;;;;;5009430;28;20379;-41
2022/11/20 03:17:29;;;;;;;22.55;13.98;;;0.10;99.90;;;;;;5011639;28;20123;-40
2022/11/20 03:19:56;;;;;;;24.98;15.23;;;0.10;99.90;;;;;;5015203;28;20057;-41
2022/11/20 03:22:22;;;;;;;24.50;15.50;;;0.10;99.90;;;;;;5030155;28;20563;-41
2022/11/20 03:24:49;;;;;;;21.17;13.90;;;0.20;99.90;;;;;;5014171;28;20474;-42
2022/11/20 03:27:16;;;;;;;25.75;13.52;;;0.20;99.90;;;;;;5015180;28;20152;-40
2022/11/20 03:29:43;;;;;;;22.02;14.77;;;0.20;99.90;;;;;;5001194;28;20119;-41
2022/11/20 03:32:09;;;;;;;24.90;14.20;;;0.20;99.90;;;;;;5014421;28;20092;-40
2022/11/20 03:34:37;;;;;;;21.65;14.63;;;0.30;99.90;;;;;;5011608;28;20042;-40
2022/11/20 03:37:04;;;;;;;19.83;14.48;;;0.20;99.90;;;;;;4995718;28;20085;-40
2022/11/20 03:39:31;;;;;;;22.80;14.68;;;0.20;99.90;;;;;;4994577;28;20390;-40
2022/11/20 03:41:58;;;;;;;22.52;14.88;;;0.30;99.90;;;;;;5004500;28;20594;-41
2022/11/20 03:44:25;;;;;;;23.23;14.98;;;0.20;99.90;;;;;;4996664;28;20458;-40
2022/11/20 03:46:51;;;;;;;21.95;14.43;;;0.20;99.90;;;;;;5003311;28;20093;-41
2022/11/20 03:49:19;;;;;;;23.95;14.70;;;0.20;99.90;;;;;;5012723;28;20057;-42
2022/11/20 03:51:47;;;;;;;23.88;14.73;;;0.20;99.90;;;;;;5015277;28;20450;-41
2022/11/20 03:54:13;;;;;;;21.80;14.15;;;0.20;99.90;;;;;;4995764;28;20058;-39
2022/11/20 03:56:40;;;;;;;23.27;14.75;;;0.20;99.90;;;;;;5010060;28;20132;-41
2022/11/20 03:59:07;;;;;;;22.13;14.35;;;0.30;99.90;;;;;;5005742;28;20088;-38
2022/11/20 04:01:35;;;;;;;20.65;14.00;;;0.30;99.90;;;;;;5007794;28;20051;-41
2022/11/20 04:04:02;;;;;;;21.13;14.38;;;0.30;99.90;;;;;;5005015;28;20132;-41
2022/11/20 04:06:29;;;;;;;23.85;14.25;;;0.30;99.90;;;;;;5013506;28;20054;-40
2022/11/20 04:08:58;;;;;;;23.13;14.95;;;0.30;99.90;;;;;;4994618;28;20096;-41
2022/11/20 04:11:27;;;;;;;21.85;13.50;;;0.30;99.90;;;;;;4995883;28;20077;-41
2022/11/20 04:13:55;;;;;;;21.20;14.18;;;0.30;99.90;;;;;;5011847;28;20081;-41
2022/11/20 04:16:21;;;;;;;21.98;13.98;;;0.30;99.90;;;;;;4998809;28;20081;-42
2022/11/20 04:18:51;;;;;;;20.45;14.02;;;0.30;99.90;;;;;;4976716;28;20141;-40
2022/11/20 04:21:18;;;;;;;24.65;14.73;;;0.30;99.90;;;;;;4991823;28;20092;-41
2022/11/20 04:23:45;;;;;;;21.23;13.73;;;0.30;99.90;;;;;;5013634;28;20132;-42
2022/11/20 04:26:13;;;;;;;23.33;15.02;;;0.30;99.90;;;;;;5013309;28;20103;-41
2022/11/20 04:28:40;;;;;;;22.15;14.05;;;0.30;99.90;;;;;;4995214;28;20088;-41
2022/11/20 04:31:07;;;;;;;22.70;13.70;;;0.30;99.90;;;;;;5009825;28;20044;-42
2022/11/20 04:33:34;;;;;;;22.38;14.23;;;0.40;99.90;;;;;;5011964;28;20096;-40
2022/11/20 04:36:04;;;;;;;21.05;14.20;;;0.40;99.90;;;;;;5011345;28;20089;-36
2022/11/20 04:38:31;;;;;;;20.20;13.88;;;0.40;99.90;;;;;;4980092;28;20061;-40
2022/11/20 04:40:59;;;;;;;23.40;14.23;;;0.40;99.90;;;;;;4987334;28;20078;-41
2022/11/20 04:43:27;;;;;;;20.27;12.95;;;0.40;99.90;;;;;;4996631;28;20505;-41
2022/11/20 04:45:54;;;;;;;20.70;13.02;;;0.40;99.90;;;;;;5002073;28;20081;-40
2022/11/20 04:48:21;;;;;;;24.52;14.65;;;0.40;99.90;;;;;;4998200;28;20138;-41
2022/11/20 04:50:48;;;;;;;21.63;14.38;;;0.50;99.90;;;;;;5010790;28;20081;-41
2022/11/20 04:53:15;;;;;;;21.95;13.93;;;0.40;99.90;;;;;;5016780;28;20494;-41
2022/11/20 04:55:41;;;;;;;22.52;14.68;;;0.50;99.90;;;;;;5012414;28;20081;-41
2022/11/20 04:58:08;;;;;;;20.20;12.88;;;0.50;99.90;;;;;;5013039;28;20050;-40
2022/11/20 05:00:36;;;;;;;23.65;15.15;;;0.50;99.90;;;;;;5009078;28;20046;-40
2022/11/20 05:03:03;;;;;;;21.52;14.73;;;0.50;99.90;;;;;;5012519;28;20145;-40
2022/11/20 05:05:30;;;;;;;22.70;14.18;;;0.50;99.90;;;;;;5011758;28;20053;-42
2022/11/20 05:07:57;;;;;;;19.92;14.10;;;0.50;99.90;;;;;;5011294;28;20482;-40
2022/11/20 05:10:24;;;;;;;20.55;12.90;;;0.50;99.90;;;;;;4986826;28;20045;-40
2022/11/20 05:12:51;;;;;;;26.27;13.45;;;0.50;99.90;;;;;;4984550;28;20057;-42
2022/11/20 05:15:17;;;;;;;18.98;12.65;;;0.50;99.90;;;;;;5011060;28;20045;-39
2022/11/20 05:17:49;;;;;;;22.48;15.20;;;0.50;99.90;;;;;;5011098;28;20077;-40
2022/11/20 05:20:16;;;;;;;22.55;14.20;;;0.50;99.90;;;;;;4995489;28;20046;-40
2022/11/20 05:22:43;;;;;;;24.67;15.60;;;0.50;99.90;;;;;;4992903;28;20184;-39
2022/11/20 05:25:10;;;;;;;23.35;13.85;;;0.50;99.90;;;;;;5013989;28;20058;-39
2022/11/20 05:27:37;;;;;;;24.30;14.05;;;0.50;99.90;;;;;;5011981;28;20081;-42
2022/11/20 05:30:04;;;;;;;24.35;14.73;;;0.50;99.90;;;;;;5011918;28;20050;-40
2022/11/20 05:32:30;;;;;;;23.17;14.10;;;0.50;99.90;;;;;;5011555;28;20113;-39
2022/11/20 05:34:59;;;;;;;21.60;14.57;;;0.50;99.90;;;;;;5006803;28;20048;-40
2022/11/20 05:37:25;;;;;;;23.60;15.40;;;0.50;99.90;;;;;;5003715;28;20046;-41
2022/11/20 05:39:52;;;;;;;24.20;14.18;;;0.50;99.90;;;;;;5010106;28;20141;-41
2022/11/20 05:42:31;;;;;;;23.48;14.90;;;0.50;99.90;;;;;;4995887;28;20073;-40
2022/11/20 05:44:58;;;;;;;21.52;14.00;;;0.50;99.90;;;;;;5004918;28;20077;-37
2022/11/20 05:47:24;;;;;;;22.02;13.85;;;0.40;99.90;;;;;;5014298;28;20045;-39
2022/11/20 05:49:51;;;;;;;22.02;14.68;;;0.40;99.90;;;;;;4997675;28;20092;-41
2022/11/20 05:52:19;;;;;;;22.88;14.48;;;0.40;99.90;;;;;;5011107;28;20495;-40
2022/11/20 05:54:46;;;;;;;23.52;14.57;;;0.40;99.90;;;;;;4984822;28;20045;-41
2022/11/20 05:57:13;;;;;;;20.02;13.38;;;0.40;99.90;;;;;;5010320;28;20137;-41
2022/11/20 05:59:40;;;;;;;22.80;14.18;;;0.40;99.90;;;;;;5000645;28;20093;-41
2022/11/20 06:02:06;;;;;;;22.75;14.50;;;0.50;99.90;;;;;;5017189;28;20493;-40
2022/11/20 06:04:33;;;;;;;22.17;13.80;;;0.40;99.90;;;;;;5012896;28;20565;-41
2022/11/20 06:07:00;;;;;;;22.63;15.02;;;0.40;99.90;;;;;;5011684;28;20117;-41
2022/11/20 06:09:28;;;;;;;21.85;14.82;;;0.40;99.90;;;;;;4988774;28;20572;-40
2022/11/20 06:11:55;;;;;;;46.30;27.30;;;0.50;99.90;;;;;;5017578;28;20089;-38
2022/11/20 06:14:22;;;;;;;21.33;13.95;;;0.50;99.90;;;;;;4997618;28;20541;-40
2022/11/20 06:16:48;;;;;;;19.48;13.35;;;0.50;99.90;;;;;;4995808;28;20092;-43
2022/11/20 06:19:15;;;;;;;20.85;14.35;;;0.50;99.90;;;;;;5014342;28;20088;-41
2022/11/20 06:21:42;;;;;;;25.35;14.70;;;0.50;99.90;;;;;;5014628;28;20050;-40
2022/11/20 06:24:10;;;;;;;21.30;13.75;;;0.50;99.90;;;;;;5018637;28;20086;-42
2022/11/20 06:26:38;;;;;;;22.58;13.98;;;0.50;99.90;;;;;;5018005;28;20555;-41
2022/11/20 06:29:05;;;;;;;23.60;14.38;;;0.50;99.90;;;;;;5012522;28;20136;-41
2022/11/20 06:31:34;;;;;;;20.88;14.20;;;0.50;99.90;;;;;;5015882;28;20093;-40
2022/11/20 06:34:01;;;;;;;21.65;14.05;;;0.50;99.90;;;;;;5013526;28;20052;-40
2022/11/20 06:36:28;;;;;;;22.27;13.65;;;0.60;99.90;;;;;;5005844;28;20119;-41
2022/11/20 06:38:55;;;;;;;20.90;13.77;;;0.60;99.90;;;;;;5005748;28;20050;-41
2022/11/20 06:41:22;;;;;;;21.42;13.13;;;0.50;99.90;;;;;;4980132;28;20081;-40
2022/11/20 06:43:50;;;;;;;21.90;14.35;;;0.60;99.90;;;;;;4996083;28;20085;-41
2022/11/20 06:46:18;;;;;;;21.17;12.90;;;0.60;99.90;;;;;;5012361;28;20132;-41
2022/11/20 06:48:45;;;;;;;21.75;14.27;;;0.60;99.90;;;;;;4996448;28;20127;-42
2022/11/20 06:51:11;;;;;;;17.88;12.38;;;0.70;99.90;;;;;;5013395;28;20133;-41
2022/11/20 06:53:38;;;;;;;19.85;13.73;;;0.70;99.90;;;;;;5004715;28;20451;-40
2022/11/20 06:56:06;;;;;;;22.75;13.68;;;0.70;99.90;;;;;;5006764;28;21252;-41
2022/11/20 06:58:36;;;;;;;20.08;13.73;;;0.70;99.90;;;;;;5003272;28;20042;-40
2022/11/20 07:01:05;;;;;;;22.83;14.68;;;0.70;99.90;;;;;;5007609;28;20050;-41
2022/11/20 07:03:32;;;;;;;21.85;13.75;;;0.70;99.90;;;;;;4995533;28;20085;-41
2022/11/20 07:05:59;;;;;;;22.00;13.35;;;0.70;99.90;;;;;;5002517;28;20101;-38
2022/11/20 07:08:26;;;;;;;19.45;12.95;;;0.70;99.90;;;;;;4999269;28;20101;-40
2022/11/20 07:10:53;;;;;;;20.95;12.02;;;0.70;99.90;;;;;;4988375;28;20112;-40
2022/11/20 07:13:20;;;;;;;20.70;12.77;;;0.70;99.90;;;;;;4987317;28;20042;-39
2022/11/20 07:15:46;;;;;;;22.02;13.27;;;0.70;99.90;;;;;;5008585;28;20638;-40
2022/11/20 07:18:15;;;;;;;20.42;12.57;;;0.70;99.90;;;;;;5007254;28;20050;-41
2022/11/20 07:20:41;;;;;;;19.80;12.15;;;0.70;99.90;;;;;;5000091;28;20045;-40
2022/11/20 07:23:08;;;;;;;21.73;12.55;;;0.70;99.90;;;;;;4997407;28;20053;-41
2022/11/20 07:25:35;;;;;;;20.73;13.75;;;0.70;99.90;;;;;;5011493;28;20093;-40
2022/11/20 07:28:03;;;;;;;20.05;12.90;;;0.70;99.90;;;;;;4989653;28;20060;-41
2022/11/20 07:30:30;;;;;;;18.80;12.70;;;0.80;99.90;;;;;;4984202;28;20549;-40
2022/11/20 07:32:57;;;;;;;18.85;13.32;;;0.70;99.90;;;;;;4993402;28;20134;-41
2022/11/20 07:35:25;;;;;;;19.63;12.77;;;0.70;99.90;;;;;;5010051;28;20085;-40
2022/11/20 07:37:52;;;;;;;21.10;13.18;;;0.70;99.90;;;;;;5006375;28;20554;-41
2022/11/20 07:40:19;;;;;;;20.13;13.23;;;0.70;99.90;;;;;;5003720;28;20192;-41
2022/11/20 07:42:50;;;;;;;19.63;12.93;;;0.80;99.90;;;;;;4980306;28;20467;-40
2022/11/20 07:45:16;;;;;;;22.60;15.35;;;0.90;99.90;;;;;;5004398;28;20054;-39
2022/11/20 07:47:43;;;;;;;24.15;15.20;;;0.80;99.90;;;;;;5004946;28;20100;-41
2022/11/20 07:50:10;;;;;;;22.75;14.57;;;0.80;99.90;;;;;;4998079;28;20117;-41
2022/11/20 07:52:38;;;;;;;22.05;14.43;;;0.80;99.90;;;;;;5004319;28;20556;-41
2022/11/20 07:55:06;;;;;;;20.25;13.27;;;0.80;99.90;;;;;;4988610;28;20049;-40
2022/11/20 07:57:33;;;;;;;20.00;12.40;;;0.80;99.90;;;;;;4998537;28;20102;-40
2022/11/20 08:00:00;;;;;;;25.67;17.45;;;0.80;99.90;;;;;;5009874;28;20137;-41
2022/11/20 08:02:26;;;;;;;20.80;14.60;;;0.80;99.90;;;;;;4989943;28;20120;-40
2022/11/20 08:04:53;;;;;;;21.80;12.68;;;0.80;99.90;;;;;;5007085;28;20050;-39
2022/11/20 08:07:20;;;;;;;18.80;13.05;;;0.80;99.90;;;;;;4999951;28;20103;-41
2022/11/20 08:09:48;;;;;;;22.38;13.90;;;0.90;99.90;;;;;;4986402;28;20085;-41
2022/11/20 08:15:02;;;;;;;22.23;14.00;;;0.90;99.90;;;;;;5010238;28;20413;-41
2022/11/20 08:17:29;;;;;;;21.98;13.25;;;0.80;99.90;;;;;;4997750;28;20552;-41
2022/11/20 08:19:56;;;;;;;19.10;12.88;;;0.90;99.90;;;;;;5004970;28;20046;-40
2022/11/20 08:22:23;;;;;;;23.98;15.38;;;0.90;99.90;;;;;;5009328;28;20093;-39
2022/11/20 08:24:51;;;;;;;21.75;14.95;;;0.80;99.90;;;;;;5008744;28;20046;-41
2022/11/20 08:27:17;;;;;;;23.80;14.93;;;0.80;99.90;;;;;;5009221;28;20054;-40
2022/11/20 08:29:44;;;;;;;20.58;14.02;;;0.80;99.90;;;;;;4999518;28;20138;-41
2022/11/20 08:32:11;;;;;;;21.30;14.38;;;0.80;99.90;;;;;;5005680;28;20058;-40
2022/11/20 08:34:38;;;;;;;19.13;13.57;;;0.90;99.90;;;;;;5015289;28;20226;-41
2022/11/20 08:37:05;;;;;;;19.48;12.50;;;0.90;99.90;;;;;;5010020;28;20050;-41
2022/11/20 08:39:31;;;;;;;20.20;12.43;;;0.80;99.90;;;;;;4992451;28;20092;-39
2022/11/20 08:42:00;;;;;;;23.00;13.05;;;0.90;99.90;;;;;;4983494;28;20085;-40
2022/11/20 08:44:26;;;;;;;18.77;12.07;;;1.00;99.90;;;;;;4997472;28;20108;-39
2022/11/20 08:46:53;;;;;;;18.88;11.95;;;1.00;99.90;;;;;;4987651;28;20084;-41
2022/11/20 08:49:21;;;;;;;17.77;11.60;;;1.00;99.90;;;;;;4980170;28;20105;-39
2022/11/20 08:51:51;;;;;;;17.13;11.68;;;1.00;99.90;;;;;;4991124;28;20061;-41
2022/11/20 08:54:19;;;;;;;18.58;12.27;;;1.00;99.90;;;;;;4984172;28;20050;-40
2022/11/20 08:56:46;;;;;;;21.10;12.15;;;1.10;99.90;;;;;;5009459;28;20046;-40
2022/11/20 08:59:14;;;;;;;18.58;12.48;;;1.10;99.90;;;;;;4989336;28;20490;-39
2022/11/20 09:01:41;;;;;;;19.85;12.48;;;1.20;99.90;;;;;;5002841;28;20147;-39
2022/11/20 09:04:08;;;;;;;18.75;12.20;;;1.20;99.90;;;;;;5003818;28;20116;-39
2022/11/20 09:06:35;;;;;;;22.98;12.10;;;1.20;99.90;;;;;;5008414;28;20140;-41
2022/11/20 09:09:01;;;;;;;19.27;12.27;;;1.30;99.90;;;;;;5005734;28;20531;-39
2022/11/20 09:11:28;;;;;;;18.48;12.80;;;1.30;99.90;;;;;;5004892;28;20046;-41
2022/11/20 09:13:55;;;;;;;22.05;12.20;;;1.40;99.90;;;;;;5006138;28;20134;-42
2022/11/20 09:16:23;;;;;;;19.83;13.00;;;1.50;99.90;;;;;;5007445;28;20061;-40
2022/11/20 09:18:50;;;;;;;16.45;11.38;;;1.60;99.90;;;;;;5005883;28;20461;-41
2022/11/20 09:21:17;;;;;;;18.60;12.73;;;1.70;99.90;;;;;;5001178;28;20085;-41
2022/11/20 09:23:45;;;;;;;17.75;12.05;;;1.80;99.90;;;;;;5004089;28;20066;-41
2022/11/20 09:26:12;;;;;;;19.40;12.48;;;2.00;99.90;;;;;;5012443;28;20096;-47
2022/11/20 09:28:39;;;;;;;19.55;11.93;;;2.10;99.90;;;;;;5013077;28;20143;-40
2022/11/20 09:31:06;;;;;;;17.88;12.23;;;2.20;99.90;;;;;;4997308;28;20504;-42
2022/11/20 09:33:35;;;;;;;16.05;11.63;;;2.30;99.90;;;;;;5006938;28;20052;-40
2022/11/20 09:36:02;;;;;;;18.80;12.88;;;2.50;99.90;;;;;;5007623;28;20077;-39
2022/11/20 09:38:29;;;;;;;22.38;13.68;;;2.60;99.90;;;;;;4992776;28;20089;-42
2022/11/20 09:40:58;;;;;;;48.40;27.83;;;2.60;99.90;;;;;;5001803;28;20176;-38
2022/11/20 09:43:29;;;;;;;15.27;10.65;;;2.70;99.90;;;;;;5009024;28;20050;-41
2022/11/20 09:46:01;;;;;;;15.85;10.25;;;2.80;99.90;;;;;;5015458;28;20478;-41
2022/11/20 09:48:52;;;;;;;16.30;11.00;;;2.90;99.90;;;;;;5010429;28;20643;-44
2022/11/20 09:51:28;;;;;;;13.43;9.45;;;3.10;99.90;;;;;;4995809;28;20077;-40
2022/11/20 09:54:02;;;;;;;16.33;10.88;;;3.10;99.90;;;;;;5011888;28;20077;-45
2022/11/20 09:56:29;;;;;;;15.70;9.95;;;3.10;99.90;;;;;;5011827;28;20092;-42
2022/11/20 09:58:56;;;;;;;19.17;11.05;;;3.10;99.90;;;;;;5013206;28;20153;-41
2022/11/20 10:01:24;;;;;;;16.17;10.50;;;3.10;99.90;;;;;;5009297;28;20121;-44
2022/11/20 10:03:55;;;;;;;15.07;9.82;;;3.10;99.90;;;;;;5012875;28;20085;-43
2022/11/20 10:06:25;;;;;;;21.23;10.53;;;3.10;99.90;;;;;;4990954;28;20058;-42
2022/11/20 10:08:56;;;;;;;12.00;7.90;;;3.10;99.90;;;;;;4984245;28;20050;-42
2022/11/20 10:11:27;;;;;;;12.20;7.65;;;3.10;99.90;;;;;;4993705;28;20056;-44
2022/11/20 10:13:57;;;;;;;10.30;7.27;;;3.20;99.90;;;;;;5008385;28;20438;-43
2022/11/20 10:16:28;;;;;;;12.02;6.88;;;3.20;99.90;;;;;;5009784;28;20139;-42
2022/11/20 10:19:03;;;;;;;10.93;8.20;;;3.30;99.90;;;;;;5003720;28;20081;-42
2022/11/20 10:21:35;;;;;;;11.98;8.15;;;3.30;99.90;;;;;;4996219;28;20290;-43
2022/11/20 10:24:16;;;;;;;12.80;8.05;;;3.30;99.90;;;;;;4979039;28;20121;-41
2022/11/20 10:26:45;;;;;;;11.70;7.57;;;3.30;99.90;;;;;;4979203;28;20443;-45
2022/11/20 10:29:13;;;;;;;12.60;8.40;;;3.20;99.90;;;;;;5014037;28;20088;-41
2022/11/20 10:31:41;;;;;;;13.35;8.82;;;3.20;99.90;;;;;;5015141;28;20510;-43
2022/11/20 10:34:13;;;;;;;11.85;7.90;;;3.30;99.90;;;;;;4996688;28;20054;-40
2022/11/20 10:36:41;;;;;;;15.25;7.72;;;3.50;99.90;;;;;;5010836;28;20092;-43
2022/11/20 10:39:15;;;;;;;10.65;8.10;;;3.60;99.90;;;;;;4993575;28;20322;-42
2022/11/20 10:41:42;;;;;;;16.45;9.63;;;3.60;99.90;;;;;;4996453;28;20546;-41
2022/11/20 10:44:12;;;;;;;12.77;8.95;;;3.70;99.90;;;;;;5008472;28;20046;-40
2022/11/20 10:46:40;;;;;;;16.20;9.40;;;3.70;99.90;;;;;;5000606;28;20050;-41
2022/11/20 10:49:14;;;;;;;14.82;9.27;;;3.70;99.90;;;;;;4998148;28;20037;-40
2022/11/20 10:51:44;;;;;;;16.77;11.85;;;3.70;99.90;;;;;;5012419;28;20113;-42
2022/11/20 10:54:17;;;;;;;15.55;9.85;;;3.70;99.90;;;;;;4996695;28;20050;-41
2022/11/20 10:56:46;;;;;;;12.80;9.52;;;3.70;99.90;;;;;;4990821;28;20085;-41
2022/11/20 10:59:33;;;;;;;15.50;9.63;;;3.80;99.90;;;;;;5014483;28;20452;-41
2022/11/20 11:02:00;;;;;;;12.85;9.05;;;3.90;99.90;;;;;;5009670;28;20101;-42
2022/11/20 11:04:35;;;;;;;12.45;8.82;;;4.00;99.90;;;;;;5009602;28;20108;-40
2022/11/20 11:07:07;;;;;;;12.43;8.65;;;4.10;99.90;;;;;;5014651;28;20108;-40
2022/11/20 11:09:35;;;;;;;13.30;8.95;;;4.10;99.90;;;;;;5010206;28;20121;-40
2022/11/20 11:12:02;;;;;;;13.98;8.60;;;4.10;99.90;;;;;;4996053;28;20557;-39
2022/11/20 11:14:29;;;;;;;15.75;10.30;;;4.20;99.90;;;;;;4977809;28;20109;-39
2022/11/20 11:16:56;;;;;;;11.57;8.35;;;4.30;99.90;;;;;;5013066;28;20054;-40
2022/11/20 11:19:24;;;;;;;11.98;8.55;;;4.30;99.90;;;;;;5018316;28;20061;-39
2022/11/20 11:21:53;;;;;;;12.68;8.65;;;4.30;99.90;;;;;;5011793;28;20050;-40
2022/11/20 11:24:22;;;;;;;13.38;8.27;;;4.30;99.90;;;;;;5013746;28;20046;-40
2022/11/20 11:26:56;;;;;;;13.57;8.60;;;4.30;99.90;;;;;;5006655;28;20060;-40
2022/11/20 11:29:23;;;;;;;10.38;7.18;;;4.30;99.90;;;;;;5017492;28;20405;-40
2022/11/20 11:31:50;;;;;;;15.75;11.80;;;4.30;99.90;;;;;;5016586;28;20053;-40
2022/11/20 11:34:17;;;;;;;13.05;8.20;;;4.40;99.90;;;;;;5016202;28;20097;-38
2022/11/20 11:36:53;;;;;;;11.63;8.18;;;4.50;99.90;;;;;;5003337;28;20049;-39
2022/11/20 11:39:20;;;;;;;11.35;7.63;;;4.60;99.90;;;;;;5019490;28;20054;-40
2022/11/20 11:41:47;;;;;;;10.55;8.13;;;4.70;99.90;;;;;;4985590;28;20046;-40
2022/11/20 11:47:01;;;;;;;13.63;9.45;;;4.70;99.90;;;;;;5006319;28;20049;-40
2022/11/20 11:49:28;;;;;;;13.57;9.63;;;4.70;99.90;;;;;;5012379;28;20078;-39
2022/11/20 11:52:03;;;;;;;12.55;8.63;;;4.80;99.90;;;;;;4985819;28;20129;-40
2022/11/20 11:54:35;;;;;;;12.15;8.50;;;4.90;99.90;;;;;;5011662;28;20512;-40
2022/11/20 11:57:05;;;;;;;13.50;8.65;;;4.90;99.90;;;;;;4994174;28;20112;-41
2022/11/20 11:59:38;;;;;;;13.52;8.52;;;5.00;99.90;;;;;;5011306;28;20038;-40
2022/11/20 12:02:14;;;;;;;11.13;8.55;;;5.00;99.90;;;;;;5003215;28;20125;-40
2022/11/20 12:04:44;;;;;;;12.55;8.05;;;5.00;99.90;;;;;;4987387;28;20502;-39
2022/11/20 12:07:16;;;;;;;14.10;9.43;;;4.90;99.90;;;;;;4991341;28;20454;-39
2022/11/20 12:09:45;;;;;;;13.60;8.77;;;4.90;99.90;;;;;;4996920;28;20483;-39
2022/11/20 12:12:13;;;;;;;11.25;7.78;;;4.80;99.90;;;;;;5014188;28;20093;-40
2022/11/20 12:14:41;;;;;;;12.80;8.60;;;4.80;99.90;;;;;;4997797;28;20379;-38
2022/11/20 12:17:08;;;;;;;9.88;7.90;;;4.80;99.90;;;;;;4989387;28;20124;-38
2022/11/20 12:19:35;;;;;;;11.20;7.55;;;4.80;99.90;;;;;;5006321;28;20097;-40
2022/11/20 12:22:05;;;;;;;11.15;6.90;;;4.80;99.90;;;;;;4993736;28;20062;-40
2022/11/20 12:24:56;;;;;;;10.63;7.45;;;4.80;99.90;;;;;;5000083;28;20405;-39
2022/11/20 12:27:44;;;;;;;19.58;15.02;;;4.80;99.90;;;;;;4970278;28;20509;-39
2022/11/20 12:30:11;;;;;;;14.90;10.95;;;4.70;99.90;;;;;;4998324;28;20136;-38
2022/11/20 12:32:46;;;;;;;10.77;7.43;;;4.70;99.90;;;;;;5004063;28;20093;-39
2022/11/20 12:35:25;;;;;;;12.05;7.90;;;4.70;99.90;;;;;;4993669;28;20089;-40
2022/11/20 12:37:55;;;;;;;12.13;8.80;;;4.60;99.90;;;;;;4992901;28;20057;-40
2022/11/20 12:40:33;;;;;;;12.83;8.17;;;4.60;99.90;;;;;;4993314;28;20050;-41
2022/11/20 12:46:17;;;;;;;10.20;8.02;;;4.50;99.90;;;;;;4986936;28;20460;-41
2022/11/20 12:48:53;;;;;;;11.77;8.07;;;4.40;99.90;;;;;;4999320;28;20101;-40
2022/11/20 12:51:39;;;;;;;11.65;8.60;;;4.40;99.90;;;;;;4995020;28;20185;-41